sensor_id;sensor_type;location;lat;lon;timestamp;pressure;altitude;pressure_sealevel;temperature;humidity
39105;BME280;46464;51.154;13.812;2023-09-07T00:00:45;51986.41;;;-146.96;100.00
39105;BME280;46464;51.154;13.812;2023-09-07T00:03:13;51978.28;;;-146.96;100.00
39105;BME280;46464;51.154;13.812;2023-09-07T00:05:39;52016.94;;;-146.96;100.00
39105;BME280;46464;51.154;13.812;2023-09-07T00:08:06;52004.72;;;-146.96;100.00
39105;BME280;46464;51.154;13.812;2023-09-07T00:10:33;51980.31;;;-146.96;100.00
39105;BME280;46464;51.154;13.812;2023-09-07T00:13:03;52045.41;;;-146.96;100.00
39105;BME280;46464;51.154;13.812;2023-09-07T00:15:30;52018.97;;;-146.96;100.00
39105;BME280;46464;51.154;13.812;2023-09-07T00:18:01;51994.53;;;-146.96;100.00
39105;BME280;46464;51.154;13.812;2023-09-07T00:20:28;51988.44;;;-146.96;100.00
39105;BME280;46464;51.154;13.812;2023-09-07T00:22:54;51994.53;;;-146.96;100.00
39105;BME280;46464;51.154;13.812;2023-09-07T00:25:21;51988.44;;;-146.96;100.00
39105;BME280;46464;51.154;13.812;2023-09-07T00:27:47;52021.00;;;-146.96;100.00
39105;BME280;46464;51.154;13.812;2023-09-07T00:30:14;52004.72;;;-146.96;100.00
39105;BME280;46464;51.154;13.812;2023-09-07T00:32:41;51962.00;;;-146.96;100.00
39105;BME280;46464;51.154;13.812;2023-09-07T00:35:08;52002.69;;;-146.96;100.00
39105;BME280;46464;51.154;13.812;2023-09-07T00:37:34;51998.63;;;-146.96;100.00
39105;BME280;46464;51.154;13.812;2023-09-07T00:40:01;51994.53;;;-146.96;100.00
39105;BME280;46464;51.154;13.812;2023-09-07T00:42:27;51990.47;;;-146.96;100.00
39105;BME280;46464;51.154;13.812;2023-09-07T00:44:54;52000.66;;;-146.96;100.00
39105;BME280;46464;51.154;13.812;2023-09-07T00:47:21;51996.59;;;-146.96;100.00
39105;BME280;46464;51.154;13.812;2023-09-07T00:49:47;51998.63;;;-146.96;100.00
39105;BME280;46464;51.154;13.812;2023-09-07T00:52:14;52008.78;;;-146.96;100.00
39105;BME280;46464;51.154;13.812;2023-09-07T00:57:16;52025.06;;;-146.96;100.00
39105;BME280;46464;51.154;13.812;2023-09-07T00:59:42;52025.06;;;-146.96;100.00
39105;BME280;46464;51.154;13.812;2023-09-07T01:02:14;51986.41;;;-146.96;100.00
39105;BME280;46464;51.154;13.812;2023-09-07T01:04:41;52029.13;;;-146.96;100.00
39105;BME280;46464;51.154;13.812;2023-09-07T01:07:20;52021.00;;;-146.96;100.00
39105;BME280;46464;51.154;13.812;2023-09-07T01:09:47;52037.28;;;-146.96;100.00
39105;BME280;46464;51.154;13.812;2023-09-07T01:12:15;51992.50;;;-146.96;100.00
39105;BME280;46464;51.154;13.812;2023-09-07T01:14:42;52021.00;;;-146.96;100.00
39105;BME280;46464;51.154;13.812;2023-09-07T01:17:14;51998.63;;;-146.96;100.00
39105;BME280;46464;51.154;13.812;2023-09-07T01:19:41;52006.75;;;-146.96;100.00
39105;BME280;46464;51.154;13.812;2023-09-07T01:22:09;52049.47;;;-146.96;100.00
39105;BME280;46464;51.154;13.812;2023-09-07T01:24:38;52057.63;;;-146.96;100.00
39105;BME280;46464;51.154;13.812;2023-09-07T01:27:05;52006.75;;;-146.96;100.00
39105;BME280;46464;51.154;13.812;2023-09-07T01:29:31;52063.72;;;-146.96;100.00
39105;BME280;46464;51.154;13.812;2023-09-07T01:31:59;52035.25;;;-146.96;100.00
39105;BME280;46464;51.154;13.812;2023-09-07T01:34:25;52021.00;;;-146.96;100.00
39105;BME280;46464;51.154;13.812;2023-09-07T01:36:52;52065.75;;;-146.96;100.00
39105;BME280;46464;51.154;13.812;2023-09-07T01:39:18;52039.31;;;-146.96;100.00
39105;BME280;46464;51.154;13.812;2023-09-07T01:41:45;52045.41;;;-146.96;100.00
39105;BME280;46464;51.154;13.812;2023-09-07T01:44:11;52065.75;;;-146.96;100.00
39105;BME280;46464;51.154;13.812;2023-09-07T01:46:41;52041.34;;;-146.96;100.00
39105;BME280;46464;51.154;13.812;2023-09-07T01:49:07;52090.16;;;-146.96;100.00
39105;BME280;46464;51.154;13.812;2023-09-07T01:51:38;52047.44;;;-146.96;100.00
39105;BME280;46464;51.154;13.812;2023-09-07T01:54:05;52037.28;;;-146.96;100.00
39105;BME280;46464;51.154;13.812;2023-09-07T01:56:31;52061.69;;;-146.96;100.00
39105;BME280;46464;51.154;13.812;2023-09-07T01:58:58;52045.41;;;-146.96;100.00
39105;BME280;46464;51.154;13.812;2023-09-07T02:01:26;52075.94;;;-146.96;100.00
39105;BME280;46464;51.154;13.812;2023-09-07T02:03:53;52012.84;;;-146.96;100.00
39105;BME280;46464;51.154;13.812;2023-09-07T02:06:19;52084.06;;;-146.96;100.00
39105;BME280;46464;51.154;13.812;2023-09-07T02:08:46;52061.69;;;-146.96;100.00
39105;BME280;46464;51.154;13.812;2023-09-07T02:11:13;52057.63;;;-146.96;100.00
39105;BME280;46464;51.154;13.812;2023-09-07T02:13:42;52049.47;;;-146.96;100.00
39105;BME280;46464;51.154;13.812;2023-09-07T02:16:09;52043.38;;;-146.96;100.00
39105;BME280;46464;51.154;13.812;2023-09-07T02:18:36;52051.50;;;-146.96;100.00
39105;BME280;46464;51.154;13.812;2023-09-07T02:21:04;52075.94;;;-146.96;100.00
39105;BME280;46464;51.154;13.812;2023-09-07T02:23:31;52025.06;;;-146.96;100.00
39105;BME280;46464;51.154;13.812;2023-09-07T02:25:58;52065.75;;;-146.96;100.00
39105;BME280;46464;51.154;13.812;2023-09-07T02:28:25;52094.25;;;-146.96;100.00
39105;BME280;46464;51.154;13.812;2023-09-07T02:30:52;52077.97;;;-146.96;100.00
39105;BME280;46464;51.154;13.812;2023-09-07T02:33:19;52057.63;;;-146.96;100.00
39105;BME280;46464;51.154;13.812;2023-09-07T02:35:47;52061.69;;;-146.96;100.00
39105;BME280;46464;51.154;13.812;2023-09-07T02:38:14;52077.97;;;-146.96;100.00
39105;BME280;46464;51.154;13.812;2023-09-07T02:40:42;52051.50;;;-146.96;100.00
39105;BME280;46464;51.154;13.812;2023-09-07T02:43:09;52073.91;;;-146.96;100.00
39105;BME280;46464;51.154;13.812;2023-09-07T02:45:36;52057.63;;;-146.96;100.00
39105;BME280;46464;51.154;13.812;2023-09-07T02:48:03;52084.06;;;-146.96;100.00
39105;BME280;46464;51.154;13.812;2023-09-07T02:50:31;52065.75;;;-146.96;100.00
39105;BME280;46464;51.154;13.812;2023-09-07T02:52:58;52057.63;;;-146.96;100.00
39105;BME280;46464;51.154;13.812;2023-09-07T02:55:26;52067.78;;;-146.96;100.00
39105;BME280;46464;51.154;13.812;2023-09-07T02:57:53;52069.81;;;-146.96;100.00
39105;BME280;46464;51.154;13.812;2023-09-07T03:00:21;52094.25;;;-146.96;100.00
39105;BME280;46464;51.154;13.812;2023-09-07T03:02:49;52067.78;;;-146.96;100.00
39105;BME280;46464;51.154;13.812;2023-09-07T03:05:15;52073.91;;;-146.96;100.00
39105;BME280;46464;51.154;13.812;2023-09-07T03:07:44;52118.66;;;-146.96;100.00
39105;BME280;46464;51.154;13.812;2023-09-07T03:10:10;52082.03;;;-146.96;100.00
39105;BME280;46464;51.154;13.812;2023-09-07T03:12:37;52082.03;;;-146.96;100.00
39105;BME280;46464;51.154;13.812;2023-09-07T03:15:04;52120.69;;;-146.96;100.00
39105;BME280;46464;51.154;13.812;2023-09-07T03:17:31;52090.16;;;-146.96;100.00
39105;BME280;46464;51.154;13.812;2023-09-07T03:19:57;52116.63;;;-146.96;100.00
39105;BME280;46464;51.154;13.812;2023-09-07T03:22:24;52106.44;;;-146.96;100.00
39105;BME280;46464;51.154;13.812;2023-09-07T03:24:50;52084.06;;;-146.96;100.00
39105;BME280;46464;51.154;13.812;2023-09-07T03:27:17;52100.34;;;-146.96;100.00
39105;BME280;46464;51.154;13.812;2023-09-07T03:32:26;52100.34;;;-146.96;100.00
39105;BME280;46464;51.154;13.812;2023-09-07T03:35:03;52092.22;;;-146.96;100.00
39105;BME280;46464;51.154;13.812;2023-09-07T03:37:29;52090.16;;;-146.96;100.00
39105;BME280;46464;51.154;13.812;2023-09-07T03:39:56;52114.59;;;-146.96;100.00
39105;BME280;46464;51.154;13.812;2023-09-07T03:42:22;52100.34;;;-146.96;100.00
39105;BME280;46464;51.154;13.812;2023-09-07T03:44:49;52112.56;;;-146.96;100.00
39105;BME280;46464;51.154;13.812;2023-09-07T03:47:16;52088.13;;;-146.96;100.00
39105;BME280;46464;51.154;13.812;2023-09-07T03:49:42;52057.63;;;-146.96;100.00
39105;BME280;46464;51.154;13.812;2023-09-07T03:52:09;52114.59;;;-146.96;100.00
39105;BME280;46464;51.154;13.812;2023-09-07T03:54:41;52098.31;;;-146.96;100.00
39105;BME280;46464;51.154;13.812;2023-09-07T03:57:07;52088.13;;;-146.96;100.00
39105;BME280;46464;51.154;13.812;2023-09-07T03:59:34;52130.88;;;-146.96;100.00
39105;BME280;46464;51.154;13.812;2023-09-07T04:02:00;52132.91;;;-146.96;100.00
39105;BME280;46464;51.154;13.812;2023-09-07T04:04:30;52141.03;;;-146.96;100.00
39105;BME280;46464;51.154;13.812;2023-09-07T04:06:57;52122.72;;;-146.96;100.00
39105;BME280;46464;51.154;13.812;2023-09-07T04:09:23;52098.31;;;-146.96;100.00
39105;BME280;46464;51.154;13.812;2023-09-07T04:11:49;52098.31;;;-146.96;100.00
39105;BME280;46464;51.154;13.812;2023-09-07T04:14:16;52096.28;;;-146.96;100.00
39105;BME280;46464;51.154;13.812;2023-09-07T04:16:42;52124.75;;;-146.96;100.00
39105;BME280;46464;51.154;13.812;2023-09-07T04:19:09;52122.72;;;-146.96;100.00
39105;BME280;46464;51.154;13.812;2023-09-07T04:21:36;52141.03;;;-146.96;100.00
39105;BME280;46464;51.154;13.812;2023-09-07T04:24:02;52122.72;;;-146.96;100.00
39105;BME280;46464;51.154;13.812;2023-09-07T04:26:29;52132.91;;;-146.96;100.00
39105;BME280;46464;51.154;13.812;2023-09-07T04:28:55;52110.53;;;-146.96;100.00
39105;BME280;46464;51.154;13.812;2023-09-07T04:31:21;52114.59;;;-146.96;100.00
39105;BME280;46464;51.154;13.812;2023-09-07T04:33:50;52118.66;;;-146.96;100.00
39105;BME280;46464;51.154;13.812;2023-09-07T04:36:17;52134.94;;;-146.96;100.00
39105;BME280;46464;51.154;13.812;2023-09-07T04:38:43;52159.34;;;-146.96;100.00
39105;BME280;46464;51.154;13.812;2023-09-07T04:41:11;52134.94;;;-146.96;100.00
39105;BME280;46464;51.154;13.812;2023-09-07T04:43:38;52122.72;;;-146.96;100.00
39105;BME280;46464;51.154;13.812;2023-09-07T04:46:06;52169.53;;;-146.96;100.00
39105;BME280;46464;51.154;13.812;2023-09-07T04:48:33;52124.75;;;-146.96;100.00
39105;BME280;46464;51.154;13.812;2023-09-07T04:51:04;52126.78;;;-146.96;100.00
39105;BME280;46464;51.154;13.812;2023-09-07T04:53:32;52120.69;;;-146.96;100.00
39105;BME280;46464;51.154;13.812;2023-09-07T04:55:59;52114.59;;;-146.96;100.00
39105;BME280;46464;51.154;13.812;2023-09-07T04:58:26;52134.94;;;-146.96;100.00
39105;BME280;46464;51.154;13.812;2023-09-07T05:00:52;52104.41;;;-146.96;100.00
39105;BME280;46464;51.154;13.812;2023-09-07T05:03:19;52120.69;;;-146.96;100.00
39105;BME280;46464;51.154;13.812;2023-09-07T05:05:53;52126.78;;;-146.96;100.00
39105;BME280;46464;51.154;13.812;2023-09-07T05:08:20;52112.56;;;-146.96;100.00
39105;BME280;46464;51.154;13.812;2023-09-07T05:10:48;52122.72;;;-146.96;100.00
39105;BME280;46464;51.154;13.812;2023-09-07T05:13:14;52130.88;;;-146.96;100.00
39105;BME280;46464;51.154;13.812;2023-09-07T05:15:48;52080.00;;;-146.96;100.00
39105;BME280;46464;51.154;13.812;2023-09-07T05:18:18;52114.59;;;-146.96;100.00
39105;BME280;46464;51.154;13.812;2023-09-07T05:20:45;52130.88;;;-146.96;100.00
39105;BME280;46464;51.154;13.812;2023-09-07T05:23:12;52102.38;;;-146.96;100.00
39105;BME280;46464;51.154;13.812;2023-09-07T05:25:45;52108.47;;;-146.96;100.00
39105;BME280;46464;51.154;13.812;2023-09-07T05:28:13;52112.56;;;-146.96;100.00
39105;BME280;46464;51.154;13.812;2023-09-07T05:30:40;52082.03;;;-146.96;100.00
39105;BME280;46464;51.154;13.812;2023-09-07T05:33:09;52063.72;;;-146.96;100.00
39105;BME280;46464;51.154;13.812;2023-09-07T05:35:35;52092.22;;;-146.96;100.00
39105;BME280;46464;51.154;13.812;2023-09-07T05:38:02;52059.66;;;-146.96;100.00
39105;BME280;46464;51.154;13.812;2023-09-07T05:40:29;52039.31;;;-146.96;100.00
39105;BME280;46464;51.154;13.812;2023-09-07T05:42:56;52025.06;;;-146.96;100.00
39105;BME280;46464;51.154;13.812;2023-09-07T05:45:23;52008.78;;;-146.96;100.00
39105;BME280;46464;51.154;13.812;2023-09-07T05:47:49;52045.41;;;-146.96;100.00
39105;BME280;46464;51.154;13.812;2023-09-07T05:50:15;52016.94;;;-146.96;100.00
39105;BME280;46464;51.154;13.812;2023-09-07T05:52:42;51992.50;;;-146.96;100.00
39105;BME280;46464;51.154;13.812;2023-09-07T05:55:08;52012.84;;;-146.96;100.00
39105;BME280;46464;51.154;13.812;2023-09-07T05:57:35;51980.31;;;-146.96;100.00
39105;BME280;46464;51.154;13.812;2023-09-07T06:00:02;51984.38;;;-146.96;100.00
39105;BME280;46464;51.154;13.812;2023-09-07T06:02:28;51970.13;;;-146.96;100.00
39105;BME280;46464;51.154;13.812;2023-09-07T06:07:37;51984.38;;;-146.96;100.00
39105;BME280;46464;51.154;13.812;2023-09-07T06:10:03;51951.81;;;-146.96;100.00
39105;BME280;46464;51.154;13.812;2023-09-07T06:12:32;51941.66;;;-146.96;100.00
39105;BME280;46464;51.154;13.812;2023-09-07T06:14:59;51943.69;;;-146.96;100.00
39105;BME280;46464;51.154;13.812;2023-09-07T06:17:26;51949.78;;;-146.96;100.00
39105;BME280;46464;51.154;13.812;2023-09-07T06:19:53;51923.34;;;-146.96;100.00
39105;BME280;46464;51.154;13.812;2023-09-07T06:22:22;51919.28;;;-146.96;98.46
39105;BME280;46464;51.154;13.812;2023-09-07T06:24:48;51886.72;;;-146.96;97.40
39105;BME280;46464;51.154;13.812;2023-09-07T06:27:18;51882.66;;;-146.96;96.72
39105;BME280;46464;51.154;13.812;2023-09-07T06:29:44;51903.00;;;-146.96;96.29
39105;BME280;46464;51.154;13.812;2023-09-07T06:32:11;51862.31;;;-146.96;94.90
39105;BME280;46464;51.154;13.812;2023-09-07T06:34:39;51839.91;;;-146.96;92.64
39105;BME280;46464;51.154;13.812;2023-09-07T06:39:40;51758.53;;;-146.96;75.37
39105;BME280;46464;51.154;13.812;2023-09-07T06:42:10;51738.19;;;-146.96;70.72
39105;BME280;46464;51.154;13.812;2023-09-07T06:44:45;51697.50;;;-146.96;70.12
39105;BME280;46464;51.154;13.812;2023-09-07T06:47:12;51677.16;;;-146.96;69.07
39105;BME280;46464;51.154;13.812;2023-09-07T06:49:40;51648.69;;;-146.96;65.88
39105;BME280;46464;51.154;13.812;2023-09-07T06:52:07;51683.28;;;-146.96;64.86
39105;BME280;46464;51.154;13.812;2023-09-07T06:54:34;51646.66;;;-146.96;62.20
39105;BME280;46464;51.154;13.812;2023-09-07T06:57:00;51640.53;;;-146.96;61.62
39105;BME280;46464;51.154;13.812;2023-09-07T06:59:27;51616.13;;;-146.96;62.47
39105;BME280;46464;51.154;13.812;2023-09-07T07:01:53;51634.44;;;-146.96;61.84
39105;BME280;46464;51.154;13.812;2023-09-07T07:04:22;51648.69;;;-146.96;60.46
39105;BME280;46464;51.154;13.812;2023-09-07T07:06:49;51612.06;;;-146.96;61.02
39105;BME280;46464;51.154;13.812;2023-09-07T07:09:15;51618.16;;;-146.96;60.68
39105;BME280;46464;51.154;13.812;2023-09-07T07:11:43;51624.28;;;-146.96;57.33
39105;BME280;46464;51.154;13.812;2023-09-07T07:14:09;51589.69;;;-146.96;58.47
39105;BME280;46464;51.154;13.812;2023-09-07T07:16:38;51573.41;;;-146.96;57.50
39105;BME280;46464;51.154;13.812;2023-09-07T07:19:04;51601.91;;;-146.96;56.15
39105;BME280;46464;51.154;13.812;2023-09-07T07:21:31;51591.72;;;-146.96;56.07
39105;BME280;46464;51.154;13.812;2023-09-07T07:23:57;51603.94;;;-146.96;57.70
39105;BME280;46464;51.154;13.812;2023-09-07T07:26:24;51593.75;;;-146.96;57.84
39105;BME280;46464;51.154;13.812;2023-09-07T07:28:50;51579.50;;;-146.96;56.03
39105;BME280;46464;51.154;13.812;2023-09-07T07:31:17;51557.13;;;-146.96;56.26
39105;BME280;46464;51.154;13.812;2023-09-07T07:33:43;51565.28;;;-146.96;56.17
39105;BME280;46464;51.154;13.812;2023-09-07T07:36:10;51549.00;;;-146.96;55.07
39105;BME280;46464;51.154;13.812;2023-09-07T07:38:37;51528.66;;;-146.96;54.73
39105;BME280;46464;51.154;13.812;2023-09-07T07:41:03;51520.53;;;-146.96;55.38
39105;BME280;46464;51.154;13.812;2023-09-07T07:43:30;51483.91;;;-146.96;51.70
39105;BME280;46464;51.154;13.812;2023-09-07T07:45:57;51530.69;;;-146.96;51.01
39105;BME280;46464;51.154;13.812;2023-09-07T07:48:24;51494.06;;;-146.96;52.06
39105;BME280;46464;51.154;13.812;2023-09-07T07:50:50;51510.34;;;-146.96;50.20
39105;BME280;46464;51.154;13.812;2023-09-07T07:53:17;51514.41;;;-146.96;50.07
39105;BME280;46464;51.154;13.812;2023-09-07T07:55:43;51483.91;;;-146.96;51.55
39105;BME280;46464;51.154;13.812;2023-09-07T07:58:10;51492.03;;;-146.96;48.48
39105;BME280;46464;51.154;13.812;2023-09-07T08:00:37;51487.97;;;-146.96;51.33
39105;BME280;46464;51.154;13.812;2023-09-07T08:03:03;51457.47;;;-146.96;48.73
39105;BME280;46464;51.154;13.812;2023-09-07T08:05:31;51459.50;;;-146.96;48.36
39105;BME280;46464;51.154;13.812;2023-09-07T08:07:58;51455.41;;;-146.96;48.48
39105;BME280;46464;51.154;13.812;2023-09-07T08:10:25;51455.41;;;-146.96;47.65
39105;BME280;46464;51.154;13.812;2023-09-07T08:15:35;51453.38;;;-146.96;48.01
39105;BME280;46464;51.154;13.812;2023-09-07T08:18:01;51422.88;;;-146.96;47.24
39105;BME280;46464;51.154;13.812;2023-09-07T08:20:28;51477.81;;;-146.96;48.31
39105;BME280;46464;51.154;13.812;2023-09-07T08:22:56;51453.38;;;-146.96;48.10
39105;BME280;46464;51.154;13.812;2023-09-07T08:25:24;51457.47;;;-146.96;46.53
39105;BME280;46464;51.154;13.812;2023-09-07T08:27:52;51461.53;;;-146.96;48.08
39105;BME280;46464;51.154;13.812;2023-09-07T08:30:25;51447.28;;;-146.96;48.08
39105;BME280;46464;51.154;13.812;2023-09-07T08:32:52;51439.16;;;-146.96;45.69
39105;BME280;46464;51.154;13.812;2023-09-07T08:35:19;51473.72;;;-146.96;46.38
39105;BME280;46464;51.154;13.812;2023-09-07T08:37:45;51471.69;;;-146.96;47.22
39105;BME280;46464;51.154;13.812;2023-09-07T08:40:12;51443.22;;;-146.96;48.51
39105;BME280;46464;51.154;13.812;2023-09-07T08:42:39;51418.81;;;-146.96;48.83
39105;BME280;46464;51.154;13.812;2023-09-07T08:47:47;51402.53;;;-146.96;45.94
39105;BME280;46464;51.154;13.812;2023-09-07T08:50:24;51424.91;;;-146.96;46.33
39105;BME280;46464;51.154;13.812;2023-09-07T08:52:51;51388.28;;;-146.96;46.36
39105;BME280;46464;51.154;13.812;2023-09-07T08:55:19;51420.84;;;-146.96;44.13
39105;BME280;46464;51.154;13.812;2023-09-07T08:57:46;51418.81;;;-146.96;46.47
39105;BME280;46464;51.154;13.812;2023-09-07T09:00:13;51414.75;;;-146.96;44.24
39105;BME280;46464;51.154;13.812;2023-09-07T09:02:45;51382.19;;;-146.96;44.84
39105;BME280;46464;51.154;13.812;2023-09-07T09:05:21;51390.31;;;-146.96;46.26
39105;BME280;46464;51.154;13.812;2023-09-07T09:07:49;51359.81;;;-146.96;44.63
39105;BME280;46464;51.154;13.812;2023-09-07T09:10:17;51398.47;;;-146.96;44.39
39105;BME280;46464;51.154;13.812;2023-09-07T09:12:46;51372.03;;;-146.96;43.68
39105;BME280;46464;51.154;13.812;2023-09-07T09:15:13;51378.13;;;-146.96;44.01
39105;BME280;46464;51.154;13.812;2023-09-07T09:17:40;51394.41;;;-146.96;44.74
39105;BME280;46464;51.154;13.812;2023-09-07T09:20:19;51390.31;;;-146.96;45.43
39105;BME280;46464;51.154;13.812;2023-09-07T09:22:45;51374.06;;;-146.96;44.79
39105;BME280;46464;51.154;13.812;2023-09-07T09:25:12;51315.06;;;-146.96;42.83
39105;BME280;46464;51.154;13.812;2023-09-07T09:27:41;51317.09;;;-146.96;42.54
39105;BME280;46464;51.154;13.812;2023-09-07T09:30:08;51331.34;;;-146.96;42.95
39105;BME280;46464;51.154;13.812;2023-09-07T09:32:34;51321.16;;;-146.96;41.81
39105;BME280;46464;51.154;13.812;2023-09-07T09:35:01;51298.78;;;-146.96;41.60
39105;BME280;46464;51.154;13.812;2023-09-07T09:37:31;51323.19;;;-146.96;40.39
39105;BME280;46464;51.154;13.812;2023-09-07T09:39:58;51308.97;;;-146.96;41.25
39105;BME280;46464;51.154;13.812;2023-09-07T09:42:25;51339.47;;;-146.96;42.89
39105;BME280;46464;51.154;13.812;2023-09-07T09:44:52;51311.00;;;-146.96;41.72
39105;BME280;46464;51.154;13.812;2023-09-07T09:47:22;51347.59;;;-146.96;41.80
39105;BME280;46464;51.154;13.812;2023-09-07T09:52:24;51367.94;;;-146.96;39.60
39105;BME280;46464;51.154;13.812;2023-09-07T09:54:51;51367.94;;;-146.96;39.96
39105;BME280;46464;51.154;13.812;2023-09-07T09:57:17;51347.59;;;-146.96;40.49
39105;BME280;46464;51.154;13.812;2023-09-07T09:59:44;51367.94;;;-146.96;42.00
39105;BME280;46464;51.154;13.812;2023-09-07T10:02:13;51337.44;;;-146.96;41.98
39105;BME280;46464;51.154;13.812;2023-09-07T10:04:39;51323.19;;;-146.96;41.21
39105;BME280;46464;51.154;13.812;2023-09-07T10:07:06;51355.75;;;-146.96;39.92
39105;BME280;46464;51.154;13.812;2023-09-07T10:09:32;51319.13;;;-146.96;38.49
39105;BME280;46464;51.154;13.812;2023-09-07T10:12:01;51315.06;;;-146.96;39.67
39105;BME280;46464;51.154;13.812;2023-09-07T10:14:41;51329.31;;;-146.96;39.13
39105;BME280;46464;51.154;13.812;2023-09-07T10:17:08;51347.59;;;-146.96;39.52
39105;BME280;46464;51.154;13.812;2023-09-07T10:19:36;51343.53;;;-146.96;40.41
39105;BME280;46464;51.154;13.812;2023-09-07T10:22:04;51296.75;;;-146.96;40.99
39105;BME280;46464;51.154;13.812;2023-09-07T10:24:34;51296.75;;;-146.96;40.78
39105;BME280;46464;51.154;13.812;2023-09-07T10:27:06;51296.75;;;-146.96;39.36
39105;BME280;46464;51.154;13.812;2023-09-07T10:29:45;51308.97;;;-146.96;40.35
39105;BME280;46464;51.154;13.812;2023-09-07T10:32:13;51323.19;;;-146.96;40.19
39105;BME280;46464;51.154;13.812;2023-09-07T10:34:45;51331.34;;;-146.96;38.99
39105;BME280;46464;51.154;13.812;2023-09-07T10:37:14;51298.78;;;-146.96;39.27
39105;BME280;46464;51.154;13.812;2023-09-07T10:39:41;51298.78;;;-146.96;39.64
39105;BME280;46464;51.154;13.812;2023-09-07T10:45:13;51284.53;;;-146.96;39.79
39105;BME280;46464;51.154;13.812;2023-09-07T10:47:42;51215.38;;;-146.96;38.61
39105;BME280;46464;51.154;13.812;2023-09-07T10:50:10;51237.75;;;-146.96;36.98
39105;BME280;46464;51.154;13.812;2023-09-07T10:55:08;51252.00;;;-146.96;39.99
39105;BME280;46464;51.154;13.812;2023-09-07T10:57:43;51241.81;;;-146.96;39.77
39105;BME280;46464;51.154;13.812;2023-09-07T11:02:51;51164.53;;;-146.96;37.47
39105;BME280;46464;51.154;13.812;2023-09-07T11:05:17;51160.47;;;-146.96;38.16
39105;BME280;46464;51.154;13.812;2023-09-07T11:07:44;51201.16;;;-146.96;36.08
39105;BME280;46464;51.154;13.812;2023-09-07T11:10:11;51231.66;;;-146.96;38.10
39105;BME280;46464;51.154;13.812;2023-09-07T11:12:38;51219.44;;;-146.96;37.97
39105;BME280;46464;51.154;13.812;2023-09-07T11:15:09;51223.53;;;-146.96;39.00
39105;BME280;46464;51.154;13.812;2023-09-07T11:17:36;51217.41;;;-146.96;39.63
39105;BME280;46464;51.154;13.812;2023-09-07T11:20:04;51197.06;;;-146.96;39.22
39105;BME280;46464;51.154;13.812;2023-09-07T11:22:33;51156.41;;;-146.96;37.92
39105;BME280;46464;51.154;13.812;2023-09-07T11:25:01;51174.69;;;-146.96;36.96
39105;BME280;46464;51.154;13.812;2023-09-07T11:27:31;51156.41;;;-146.96;35.78
39105;BME280;46464;51.154;13.812;2023-09-07T11:29:58;51101.47;;;-146.96;36.09
39105;BME280;46464;51.154;13.812;2023-09-07T11:32:32;51105.53;;;-146.96;36.50
39105;BME280;46464;51.154;13.812;2023-09-07T11:34:59;51083.16;;;-146.96;36.01
39105;BME280;46464;51.154;13.812;2023-09-07T11:37:26;51089.25;;;-146.96;36.79
39105;BME280;46464;51.154;13.812;2023-09-07T11:39:52;51070.97;;;-146.96;35.72
39105;BME280;46464;51.154;13.812;2023-09-07T11:42:19;51068.94;;;-146.96;35.54
39105;BME280;46464;51.154;13.812;2023-09-07T11:44:45;51044.53;;;-146.96;33.29
39105;BME280;46464;51.154;13.812;2023-09-07T11:47:12;51003.84;;;-146.96;33.71
39105;BME280;46464;51.154;13.812;2023-09-07T11:49:38;50989.59;;;-146.96;33.60
39105;BME280;46464;51.154;13.812;2023-09-07T11:52:05;51009.94;;;-146.96;33.69
39105;BME280;46464;51.154;13.812;2023-09-07T11:57:13;51032.31;;;-146.96;33.87
39105;BME280;46464;51.154;13.812;2023-09-07T11:59:42;51026.22;;;-146.96;33.49
39105;BME280;46464;51.154;13.812;2023-09-07T12:02:26;51085.19;;;-146.96;34.65
39105;BME280;46464;51.154;13.812;2023-09-07T12:04:54;51101.47;;;-146.96;36.11
39105;BME280;46464;51.154;13.812;2023-09-07T12:07:20;51052.66;;;-146.96;35.31
39105;BME280;46464;51.154;13.812;2023-09-07T12:09:47;51109.59;;;-146.96;34.56
39105;BME280;46464;51.154;13.812;2023-09-07T12:12:14;51097.41;;;-146.96;35.38
39105;BME280;46464;51.154;13.812;2023-09-07T12:14:41;51097.41;;;-146.96;35.72
39105;BME280;46464;51.154;13.812;2023-09-07T12:17:07;51077.06;;;-146.96;34.52
39105;BME280;46464;51.154;13.812;2023-09-07T12:19:34;51058.75;;;-146.96;34.02
39105;BME280;46464;51.154;13.812;2023-09-07T12:22:01;50975.34;;;-146.96;32.85
39105;BME280;46464;51.154;13.812;2023-09-07T12:24:27;50928.56;;;-146.96;32.35
39105;BME280;46464;51.154;13.812;2023-09-07T12:26:54;50889.94;;;-146.96;31.63
39105;BME280;46464;51.154;13.812;2023-09-07T12:29:20;50912.31;;;-146.96;31.78
39105;BME280;46464;51.154;13.812;2023-09-07T12:31:47;50967.22;;;-146.96;31.67
39105;BME280;46464;51.154;13.812;2023-09-07T12:34:13;50940.78;;;-146.96;31.27
39105;BME280;46464;51.154;13.812;2023-09-07T12:36:40;50910.28;;;-146.96;30.88
39105;BME280;46464;51.154;13.812;2023-09-07T12:39:07;50950.94;;;-146.96;31.71
39105;BME280;46464;51.154;13.812;2023-09-07T12:41:33;50979.44;;;-146.96;31.40
39105;BME280;46464;51.154;13.812;2023-09-07T12:44:00;50995.69;;;-146.96;30.75
39105;BME280;46464;51.154;13.812;2023-09-07T12:46:26;51014.00;;;-146.96;31.23
39105;BME280;46464;51.154;13.812;2023-09-07T12:48:53;50991.63;;;-146.96;32.20
39105;BME280;46464;51.154;13.812;2023-09-07T12:51:19;50975.34;;;-146.96;33.63
39105;BME280;46464;51.154;13.812;2023-09-07T12:53:46;51034.34;;;-146.96;32.75
39105;BME280;46464;51.154;13.812;2023-09-07T12:56:12;51091.31;;;-146.96;32.96